KEWR/EWR METAR and TAF weather

Enter ICAO airport designator
Station Type Date Time Source
KEWR METAR 2019/04/18 13:51 UTC NOAA

KEWR 181351Z 12008KT 10SM OVC021 12/06 A3011 RMK AO2 RAE41 SLP194 P0000 T01170061


Station Type Date Time Source
KEWR Decoded METAR 2019/04/18 13:51 UTC NOAA

NEWARK INTERNATIONAL AIRPORT, NJ, United States (KEWR) 40-41N 74-10W 7M
Apr 18, 2019 - 09:51 AM EDT / 2019.04.18 1351 UTC
Wind: from the ESE (120 degrees) at 9 MPH (8 KT):0
Visibility: 10 mile(s):0
Sky conditions: overcast
Precipitation last hour: A trace
Temperature: 53.1 F (11.7 C)
Dew Point: 43.0 F (6.1 C)
Relative Humidity: 68%
Pressure (altimeter): 30.11 in. Hg (1019 hPa)
ob: KEWR 181351Z 12008KT 10SM OVC021 12/06 A3011 RMK AO2 RAE41 SLP194 P0000 T01170061
cycle: 14

Station Type Date Time Source
KEWR TAF 2019/04/18 14:33 UTC NOAA

TAF
AMD KEWR 181330Z 1814/1918 12010G18KT P6SM OVC020
TEMPO 1814/1818 4SM -RADZ BR OVC009
FM182000 13009G18KT P6SM SCT009 BKN020
FM190000 17010KT P6SM FEW040 BKN150
FM190800 20010KT 4SM BR SCT010 BKN040
FM191200 19012KT P6SM BKN015 PROB30 1912/1918 -SHRA

Example: see airport list